| time (UTC) | temp C | wind direction | speed KPH | gust KPH | rain 1hr cm | rain 24hr cm | rain mn cm | humidity % | barometer mb |
| 20260509213011 | 33 | 77 | 0.0 | 9.7 | 0.00 | 0.05 | 0.05 | 41 | 1009.9 |
| 20260509212508 | 33 | 38 | 3.2 | 12.9 | 0.00 | 0.05 | 0.05 | 40 | 1009.9 |
| 20260509212005 | 32 | 61 | 0.0 | 4.8 | 0.00 | 0.05 | 0.05 | 40 | 1009.9 |
| 20260509211500 | 33 | 57 | 11.3 | 11.3 | 0.00 | 0.05 | 0.05 | 39 | 1009.9 |
| 20260509210957 | 33 | 155 | 8.0 | 11.3 | 0.00 | 0.05 | 0.05 | 39 | 1010.0 |
| 20260509210454 | 33 | 322 | 0.0 | 6.4 | 0.00 | 0.05 | 0.05 | 40 | 1010.1 |
| 20260509205950 | 33 | 96 | 3.2 | 4.8 | 0.00 | 0.05 | 0.05 | 38 | 1010.2 |
| 20260509205445 | 32 | 39 | 4.8 | 6.4 | 0.00 | 0.05 | 0.05 | 39 | 1010.4 |
| 20260509204941 | 32 | 23 | 6.4 | 8.0 | 0.00 | 0.05 | 0.05 | 38 | 1010.5 |
| 20260509204437 | 33 | 0 | 3.2 | 4.8 | 0.00 | 0.05 | 0.05 | 41 | 1010.5 |
| 20260509203934 | 32 | 306 | 0.0 | 6.4 | 0.00 | 0.05 | 0.05 | 39 | 1010.6 |
| 20260509203429 | 32 | 21 | 3.2 | 9.7 | 0.00 | 0.05 | 0.05 | 40 | 1010.6 |
| 20260509202927 | 33 | 56 | 16.1 | 17.7 | 0.00 | 0.05 | 0.05 | 38 | 1010.6 |
| 20260509202423 | 32 | 144 | 8.0 | 8.0 | 0.00 | 0.05 | 0.05 | 39 | 1010.6 |
| 20260509201919 | 32 | 342 | 1.6 | 4.8 | 0.00 | 0.05 | 0.05 | 40 | 1010.7 |
| 20260509201414 | 32 | 83 | 6.4 | 11.3 | 0.00 | 0.05 | 0.05 | 38 | 1010.9 |
| 20260509200911 | 32 | 3 | 3.2 | 8.0 | 0.00 | 0.05 | 0.05 | 40 | 1010.7 |
| 20260509200411 | 32 | 33 | 14.5 | 16.1 | 0.00 | 0.05 | 0.05 | 39 | 1011.0 |
| 20260509195908 | 32 | 58 | 9.7 | 14.5 | 0.00 | 0.05 | 0.05 | 40 | 1011.0 |
| 20260509195403 | 32 | 358 | 6.4 | 19.3 | 0.00 | 0.05 | 0.05 | 43 | 1011.1 |
| 20260509194903 | 32 | 33 | 8.0 | 11.3 | 0.00 | 0.05 | 0.05 | 41 | 1011.0 |
| 20260509194359 | 31 | 60 | 3.2 | 12.9 | 0.00 | 0.05 | 0.05 | 43 | 1011.1 |
| 20260509193856 | 32 | 36 | 6.4 | 14.5 | 0.00 | 0.05 | 0.05 | 42 | 1011.2 |
| 20260509193356 | 32 | 329 | 4.8 | 8.0 | 0.00 | 0.05 | 0.05 | 43 | 1011.1 |
| 20260509192852 | 32 | 310 | 3.2 | 8.0 | 0.00 | 0.05 | 0.05 | 42 | |
| 20260509192348 | 32 | 210 | 1.6 | 9.7 | 0.00 | 0.05 | 0.05 | 42 | 1011.3 |
| 20260509191844 | 32 | 89 | 4.8 | 8.0 | 0.00 | 0.05 | 0.05 | 45 | 1011.3 |
| 20260509191340 | 31 | 344 | 4.8 | 11.3 | 0.00 | 0.05 | 0.05 | 45 | 1011.4 |
| 20260509190836 | 32 | 2 | 3.2 | 6.4 | 0.00 | 0.05 | 0.05 | 44 | 1011.3 |
| 20260509190333 | 32 | 18 | 4.8 | 6.4 | 0.00 | 0.05 | 0.05 | 47 | 1011.3 |
| 20260509185830 | 31 | 29 | 3.2 | 6.4 | 0.00 | 0.05 | 0.05 | 46 | 1011.6 |
| 20260509185326 | 31 | 69 | 9.7 | 9.7 | 0.00 | 0.05 | 0.05 | 46 | 1011.6 |
| 20260509184824 | 31 | 320 | 6.4 | 9.7 | 0.00 | 0.05 | 0.05 | 46 | 1011.7 |
| 20260509184321 | 31 | 330 | 3.2 | 14.5 | 0.00 | 0.05 | 0.05 | 45 | 1011.5 |
| 20260509183818 | 32 | 309 | 4.8 | 8.0 | 0.00 | 0.05 | 0.05 | 43 | 1011.7 |
| 20260509183313 | 31 | 259 | 3.2 | 4.8 | 0.00 | 0.05 | 0.05 | 45 | 1011.8 |
| 20260509182809 | 31 | 84 | 6.4 | 6.4 | 0.00 | 0.05 | 0.05 | 44 | 1011.8 |
| 20260509182307 | 31 | 352 | 3.2 | 6.4 | 0.00 | 0.05 | 0.05 | 47 | 1011.9 |
| 20260509181803 | 31 | 2 | 4.8 | 9.7 | 0.00 | 0.05 | 0.05 | 44 | 1012.0 |
| 20260509181301 | 31 | 50 | 4.8 | 6.4 | 0.00 | 0.05 | 0.05 | 47 | 1012.0 |
| 20260509180758 | 30 | 277 | 4.8 | 8.0 | 0.00 | 0.05 | 0.05 | 44 | 1012.1 |
| 20260509180254 | 30 | 35 | 9.7 | 11.3 | 0.00 | 0.05 | 0.05 | 46 | 1012.3 |
| 20260509175750 | 31 | 359 | 6.4 | 12.9 | 0.00 | 0.05 | 0.05 | 46 | 1012.4 |
| 20260509175247 | 30 | 28 | 1.6 | 6.4 | 0.00 | 0.05 | 0.05 | 45 | 1012.3 |
| 20260509174743 | 30 | 293 | 1.6 | 8.0 | 0.00 | 0.05 | 0.05 | 45 | 1012.3 |
| 20260509174238 | 30 | 359 | 4.8 | 8.0 | 0.00 | 0.05 | 0.05 | 47 | 1012.4 |
| 20260509173735 | 30 | 310 | 4.8 | 12.9 | 0.00 | 0.05 | 0.05 | 47 | 1012.4 |
| 20260509173230 | 30 | 35 | 3.2 | 11.3 | 0.00 | 0.05 | 0.05 | 49 | 1012.6 |
| 20260509172727 | 30 | 24 | 9.7 | 12.9 | 0.00 | 0.05 | 0.05 | 48 | 1012.3 |
| 20260509172223 | 31 | 267 | 3.2 | 8.0 | 0.00 | 0.05 | 0.05 | 44 | 1012.5 |
| 20260509171718 | 30 | 340 | 3.2 | 4.8 | 0.00 | 0.05 | 0.05 | 46 | 1012.7 |
| 20260509171215 | 30 | 358 | 3.2 | 8.0 | 0.00 | 0.05 | 0.05 | 47 | 1012.6 |
| 20260509170712 | 30 | 14 | 6.4 | 9.7 | 0.00 | 0.05 | 0.05 | 48 | 1012.6 |
| 20260509170208 | 30 | 282 | 8.0 | 9.7 | 0.00 | 0.05 | 0.05 | 47 | 1012.5 |
| 20260509165707 | 30 | 300 | 3.2 | 4.8 | 0.00 | 0.05 | 0.05 | 48 | 1012.8 |
| 20260509165202 | 30 | 344 | 3.2 | 6.4 | 0.00 | 0.05 | 0.05 | 48 | 1012.7 |
| 20260509164658 | 30 | 253 | 0.0 | 4.8 | 0.00 | 0.05 | 0.05 | 50 | 1012.7 |
| 20260509164154 | 30 | 266 | 8.0 | 8.0 | 0.00 | 0.05 | 0.05 | 50 | 1012.9 |
| 20260509163652 | 30 | 335 | 3.2 | 6.4 | 0.00 | 0.05 | 0.05 | 53 | 1012.9 |
| 20260509163148 | 30 | 214 | 1.6 | 3.2 | 0.00 | 0.05 | 0.05 | 51 | 1012.9 |
| 20260509162645 | 29 | 212 | 3.2 | 6.4 | 0.00 | 0.05 | 0.05 | 50 | 1013.0 |
| 20260509162141 | 29 | 180 | 0.0 | 4.8 | 0.00 | 0.05 | 0.05 | 52 | 1012.8 |
| 20260509161637 | 29 | 281 | 3.2 | 6.4 | 0.00 | 0.05 | 0.05 | 50 | 1012.9 |
| 20260509161132 | 28 | 96 | 4.8 | 8.0 | 0.00 | 0.05 | 0.05 | 52 | 1012.8 |
| 20260509160628 | 28 | 359 | 6.4 | 8.0 | 0.00 | 0.05 | 0.05 | 54 | 1012.9 |
| 20260509160124 | 28 | 60 | 3.2 | 11.3 | 0.00 | 0.05 | 0.05 | 52 | 1012.9 |
| 20260509155620 | 28 | 130 | 0.0 | 4.8 | 0.00 | 0.05 | 0.05 | 53 | 1013.1 |
| 20260509155116 | 28 | 20 | 4.8 | 6.4 | 0.00 | 0.05 | 0.05 | 58 | 1012.9 |
| 20260509154612 | 28 | 50 | 3.2 | 4.8 | 0.00 | 0.05 | 0.05 | 56 | 1012.9 |
| 20260509154110 | 27 | 357 | 3.2 | 8.0 | 0.00 | 0.05 | 0.05 | 60 | 1012.9 |
| 20260509153607 | 28 | 300 | 4.8 | 6.4 | 0.00 | 0.05 | 0.05 | 58 | 1012.8 |
| 20260509153104 | 27 | 73 | 3.2 | 4.8 | 0.00 | 0.05 | 0.05 | 59 | 1013.0 |
| 20260509152559 | 26 | 300 | 4.8 | 8.0 | 0.00 | 0.05 | 0.05 | 61 | 1012.9 |
| 20260509152057 | 27 | 295 | 6.4 | 8.0 | 0.00 | 0.05 | 0.05 | 62 | 1012.8 |
| 20260509151553 | 26 | 330 | 4.8 | 9.7 | 0.00 | 0.05 | 0.05 | 64 | 1012.9 |
| 20260509151051 | 26 | 353 | 4.8 | 8.0 | 0.00 | 0.05 | 0.05 | 63 | 1013.1 |
| 20260509150548 | 26 | 335 | 8.0 | 8.0 | 0.00 | 0.05 | 0.05 | 67 | 1013.0 |
| 20260509150047 | 26 | 293 | 8.0 | 8.0 | 0.00 | 0.05 | 0.05 | 67 | 1013.1 |
| 20260509145542 | 26 | 297 | 4.8 | 6.4 | 0.00 | 0.05 | 0.05 | 69 | 1013.2 |
| 20260509145037 | 25 | 290 | 6.4 | 11.3 | 0.00 | 0.05 | 0.05 | 70 | 1013.2 |
| 20260509144534 | 25 | 277 | 4.8 | 8.0 | 0.00 | 0.05 | 0.05 | 71 | 1013.1 |
| 20260509144032 | 25 | 317 | 3.2 | 6.4 | 0.00 | 0.05 | 0.05 | 70 | 1013.0 |
| 20260509143528 | 25 | 305 | 3.2 | 8.0 | 0.00 | 0.05 | 0.05 | 70 | 1013.1 |
| 20260509143027 | 25 | 0 | 4.8 | 8.0 | 0.00 | 0.05 | 0.05 | 72 | 1013.2 |
| 20260509142521 | 24 | 71 | 4.8 | 8.0 | 0.00 | 0.05 | 0.05 | 73 | 1012.9 |
| 20260509142017 | 24 | 332 | 6.4 | 9.7 | 0.00 | 0.05 | 0.05 | 72 | 1012.8 |
| 20260509141514 | 24 | 341 | 8.0 | 9.7 | 0.00 | 0.05 | 0.05 | 72 | 1012.9 |
| 20260509141011 | 24 | 294 | 4.8 | 8.0 | 0.00 | 0.05 | 0.05 | 75 | 1013.0 |
| 20260509140507 | 23 | 339 | 4.8 | 6.4 | 0.00 | 0.05 | 0.05 | 77 | 1012.8 |
| 20260509140006 | 22 | 338 | 8.0 | 12.9 | 0.00 | 0.05 | 0.05 | 77 | 1012.9 |
| 20260509135502 | 22 | 335 | 8.0 | 9.7 | 0.00 | 0.05 | 0.05 | 80 | 1012.7 |
| 20260509135000 | 22 | 331 | 4.8 | 6.4 | 0.00 | 0.05 | 0.05 | 81 | 1012.8 |
| 20260509134457 | 22 | 350 | 8.0 | 8.0 | 0.00 | 0.05 | 0.05 | 81 | 1012.7 |
| 20260509133955 | 22 | 302 | 6.4 | 16.1 | 0.00 | 0.05 | 0.05 | 81 | 1012.7 |
| 20260509133451 | 22 | 312 | 6.4 | 9.7 | 0.00 | 0.05 | 0.05 | 82 | 1012.5 |
| 20260509132949 | 22 | 328 | 6.4 | 11.3 | 0.00 | 0.05 | 0.05 | 82 | 1012.3 |
| 20260509132447 | 22 | 4 | 9.7 | 11.3 | 0.00 | 0.05 | 0.05 | 82 | 1012.2 |
| 20260509131944 | 22 | 357 | 4.8 | 9.7 | 0.00 | 0.05 | 0.05 | 82 | 1012.2 |
| 20260509131441 | 22 | 290 | 8.0 | 17.7 | 0.00 | 0.05 | 0.05 | 83 | 1012.0 |
| 20260509130937 | 22 | 348 | 11.3 | 12.9 | 0.00 | 0.05 | 0.05 | 83 | 1012.0 |
| 20260509130433 | 21 | 330 | 6.4 | 11.3 | 0.00 | 0.05 | 0.05 | 84 | 1012.1 |
| 20260509125930 | 21 | 342 | 8.0 | 9.7 | 0.00 | 0.05 | 0.05 | 85 | 1012.0 |
| 20260509125427 | 21 | 341 | 3.2 | 9.7 | 0.00 | 0.05 | 0.05 | 85 | 1011.8 |
| 20260509124923 | 21 | 345 | 8.0 | 9.7 | 0.00 | 0.05 | 0.05 | 86 | 1011.8 |
| 20260509124420 | 21 | 336 | 8.0 | 12.9 | 0.00 | 0.05 | 0.05 | 85 | 1011.9 |
| 20260509123917 | 21 | 347 | 4.8 | 9.7 | 0.00 | 0.05 | 0.05 | 85 | 1011.7 |
| 20260509123415 | 21 | 15 | 4.8 | 8.0 | 0.00 | 0.05 | 0.05 | 85 | 1011.7 |
| 20260509122910 | 21 | 350 | 4.8 | 8.0 | 0.00 | 0.05 | 0.05 | 85 | 1011.7 |
| 20260509122408 | 21 | 3 | 4.8 | 9.7 | 0.00 | 0.05 | 0.05 | 85 | 1011.7 |
| 20260509121904 | 21 | 343 | 4.8 | 8.0 | 0.00 | 0.05 | 0.05 | 85 | 1011.9 |
| 20260509121401 | 20 | 357 | 4.8 | 8.0 | 0.00 | 0.05 | 0.05 | 87 | 1011.7 |
| 20260509120859 | 20 | 359 | 6.4 | 9.7 | 0.00 | 0.05 | 0.05 | 88 | 1011.5 |
| 20260509120356 | 20 | 17 | 9.7 | 9.7 | 0.00 | 0.05 | 0.05 | 89 | 1011.7 |
| 20260509115854 | 20 | 14 | 8.0 | 12.9 | 0.00 | 0.05 | 0.05 | 89 | 1011.7 |
| 20260509115351 | 20 | 19 | 4.8 | 8.0 | 0.00 | 0.05 | 0.05 | 89 | 1011.7 |
| 20260509114849 | 20 | 7 | 4.8 | 8.0 | 0.00 | 0.05 | 0.05 | 90 | 1011.7 |
| 20260509114348 | 20 | 20 | 8.0 | 9.7 | 0.00 | 0.05 | 0.05 | 90 | 1011.8 |
| 20260509113847 | 20 | 8 | 4.8 | 6.4 | 0.00 | 0.05 | 0.05 | 91 | 1012.0 |
| 20260509113344 | 20 | 33 | 1.6 | 8.0 | 0.00 | 0.05 | 0.05 | 91 | 1011.7 |
| 20260509112840 | 20 | 46 | 1.6 | 4.8 | 0.00 | 0.05 | 0.05 | 91 | 1011.9 |
| 20260509112337 | 20 | 349 | 3.2 | 6.4 | 0.00 | 0.05 | 0.05 | 91 | 1011.9 |
| 20260509111834 | 20 | 331 | 4.8 | 8.0 | 0.00 | 0.05 | 0.05 | 91 | 1011.9 |
| 20260509111331 | 20 | 338 | 3.2 | 8.0 | 0.00 | 0.05 | 0.05 | 92 | 1011.9 |
| 20260509110829 | 20 | 316 | 6.4 | 8.0 | 0.00 | 0.05 | 0.05 | 92 | 1011.8 |
| 20260509110325 | 20 | 254 | 0.0 | 3.2 | 0.00 | 0.05 | 0.05 | 91 | 1011.9 |
| 20260509105823 | 20 | 287 | 4.8 | 4.8 | 0.00 | 0.05 | 0.05 | 91 | 1011.8 |
| 20260509105321 | 20 | 346 | 4.8 | 6.4 | 0.00 | 0.05 | 0.05 | 91 | 1011.4 |
| 20260509104817 | 21 | 258 | 3.2 | 9.7 | 0.00 | 0.05 | 0.05 | 91 | 1011.4 |
| 20260509104314 | 20 | 312 | 4.8 | 8.0 | 0.00 | 0.05 | 0.05 | 92 | 1011.1 |
| 20260509103812 | 20 | 302 | 8.0 | 12.9 | 0.00 | 0.05 | 0.05 | 92 | 1011.5 |
| 20260509103309 | 20 | 221 | 3.2 | 6.4 | 0.00 | 0.05 | 0.05 | 93 | 1011.0 |
| 20260509102808 | 20 | 311 | 6.4 | 8.0 | 0.00 | 0.05 | 0.05 | 93 | 1011.1 |
| 20260509102306 | 20 | 63 | 6.4 | 11.3 | 0.00 | 0.05 | 0.05 | 94 | 1010.9 |
| 20260509101800 | 20 | 315 | 4.8 | 11.3 | 0.00 | 0.05 | 0.05 | 95 | 1010.7 |
| 20260509101256 | 20 | 146 | 6.4 | 11.3 | 0.00 | 0.05 | 0.05 | 95 | 1010.2 |
| 20260509100754 | 20 | 187 | 0.0 | 4.8 | 0.00 | 0.05 | 0.05 | 95 | 1010.3 |
| 20260509100252 | 20 | 356 | 4.8 | 4.8 | 0.00 | 0.05 | 0.05 | 96 | 1009.9 |
| 20260509095748 | 20 | 264 | 0.0 | 4.8 | 0.00 | 0.05 | 0.05 | 96 | 1009.5 |
| 20260509095245 | 20 | 35 | 4.8 | 8.0 | 0.00 | 0.05 | 0.05 | 96 | 1009.2 |
| 20260509094742 | 20 | 189 | 1.6 | 6.4 | 0.00 | 0.05 | 0.05 | 96 | 1009.1 |
| 20260509094239 | 20 | 276 | 0.0 | 4.8 | 0.00 | 0.05 | 0.05 | 96 | 1009.4 |
| 20260509093737 | 20 | 269 | 4.8 | 8.0 | 0.00 | 0.05 | 0.05 | 96 | 1009.0 |
| 20260509093234 | 20 | 170 | 8.0 | 8.0 | 0.00 | 0.05 | 0.05 | 96 | 1008.9 |
| 20260509092732 | 20 | 306 | 0.0 | 3.2 | 0.00 | 0.05 | 0.05 | 96 | 1009.5 |
| 20260509092230 | 20 | 263 | 4.8 | 6.4 | 0.00 | 0.05 | 0.05 | 96 | 1009.2 |
| 20260509091728 | 20 | 213 | 9.7 | 14.5 | 0.00 | 0.05 | 0.05 | 96 | 1009.1 |
| 20260509091223 | 20 | 139 | 6.4 | 11.3 | 0.00 | 0.05 | 0.05 | 96 | 1009.0 |
| 20260509090722 | 20 | 163 | 3.2 | 3.2 | 0.00 | 0.05 | 0.05 | 96 | 1009.8 |
| 20260509090218 | 20 | 246 | 3.2 | 3.2 | 0.00 | 0.05 | 0.05 | 96 | 1010.1 |
| 20260509085716 | 20 | 167 | 6.4 | 11.3 | 0.00 | 0.05 | 0.05 | 96 | 1010.4 |
| 20260509085213 | 20 | 169 | 6.4 | 8.0 | 0.00 | 0.05 | 0.05 | 96 | 1010.5 |
| 20260509084710 | 20 | 289 | 3.2 | 4.8 | 0.00 | 0.05 | 0.05 | 96 | 1010.8 |
| 20260509084206 | 20 | 202 | 6.4 | 6.4 | 0.00 | 0.05 | 0.05 | 96 | 1010.8 |
| 20260509083704 | 20 | 179 | 4.8 | 6.4 | 0.00 | 0.05 | 0.05 | 96 | 1011.0 |
| 20260509083201 | 20 | 21 | 1.6 | 3.2 | 0.00 | 0.05 | 0.05 | 95 | 1011.2 |
| 20260509082658 | 20 | 307 | 3.2 | 3.2 | 0.00 | 0.05 | 0.05 | 95 | 1011.1 |
| 20260509082154 | 20 | 296 | 1.6 | 1.6 | 0.00 | 0.05 | 0.05 | 95 | 1011.0 |
| 20260509081651 | 20 | 134 | 3.2 | 4.8 | 0.00 | 0.05 | 0.05 | 95 | 1011.0 |
| 20260509081148 | 20 | 137 | 3.2 | 4.8 | 0.00 | 0.05 | 0.05 | 95 | 1011.2 |
| 20260509080646 | 20 | 197 | 3.2 | 6.4 | 0.00 | 0.05 | 0.05 | 95 | 1011.4 |
| 20260509080144 | 20 | 140 | 4.8 | 8.0 | 0.00 | 0.05 | 0.05 | 95 | 1011.7 |
| 20260509075642 | 20 | 134 | 6.4 | 8.0 | 0.00 | 0.05 | 0.05 | 94 | 1012.2 |
| 20260509075140 | 20 | 192 | 1.6 | 4.8 | 0.00 | 0.05 | 0.05 | 94 | 1012.5 |
| 20260509074636 | 20 | 154 | 3.2 | 4.8 | 0.00 | 0.05 | 0.05 | 94 | 1012.7 |
| 20260509074133 | 20 | 195 | 0.0 | 4.8 | 0.05 | 0.05 | 0.05 | 94 | 1013.0 |
| 20260509073630 | 20 | 14 | 1.6 | 4.8 | 0.00 | 0.05 | 0.05 | 94 | 1013.2 |
| 20260509073126 | 20 | 144 | 0.0 | 3.2 | 0.05 | 0.05 | 0.05 | 94 | 1013.3 |
| 20260509072623 | 20 | 11 | 0.0 | 3.2 | 0.05 | 0.05 | 0.05 | 94 | 1013.9 |
| 20260509072120 | 20 | 50 | 3.2 | 4.8 | 0.13 | 0.03 | 0.03 | 94 | 1013.8 |
| 20260509071616 | 20 | 293 | 3.2 | 4.8 | 0.05 | 0.00 | 0.00 | 94 | 1013.8 |
| 20260509071113 | 20 | 318 | 4.8 | 9.7 | 0.00 | 0.00 | 0.00 | 94 | 1014.0 |
| 20260509070611 | 20 | 340 | 9.7 | 16.1 | 0.00 | 0.00 | 0.00 | 95 | 1014.4 |
| 20260509070107 | 20 | 291 | 14.5 | 19.3 | 0.00 | 0.00 | 0.00 | 95 | 1014.2 |
| 20260509065602 | 20 | 305 | 4.8 | 11.3 | 0.00 | 0.00 | 0.00 | 95 | 1014.1 |
| 20260509065058 | 20 | 345 | 9.7 | 9.7 | 0.00 | 0.00 | 0.00 | 96 | 1013.9 |
| 20260509064556 | 20 | 2 | 6.4 | 12.9 | 0.00 | 0.00 | 0.00 | 96 | 1013.8 |
| 20260509064054 | 20 | 351 | 4.8 | 8.0 | 0.00 | 0.00 | 0.00 | 96 | 1013.4 |
| 20260509063550 | 20 | 340 | 3.2 | 4.8 | 0.00 | 0.00 | 0.00 | 96 | 1013.1 |
| 20260509063047 | 20 | 309 | 3.2 | 6.4 | 0.00 | 0.00 | 0.00 | 96 | 1013.3 |
| 20260509062544 | 19 | 317 | 3.2 | 8.0 | 0.00 | 0.00 | 0.00 | 95 | 1013.2 |
| 20260509062042 | 19 | 356 | 1.6 | 3.2 | 0.00 | 0.00 | 0.00 | 95 | 1013.0 |
| 20260509061538 | 19 | 356 | 6.4 | 8.0 | 0.00 | 0.00 | 0.00 | 95 | 1013.3 |
| 20260509061036 | 18 | 344 | 1.6 | 3.2 | 0.00 | 0.00 | 0.00 | 95 | 1012.6 |
| 20260509060533 | 18 | 19 | 1.6 | 3.2 | 0.00 | 0.00 | 0.00 | 94 | 1012.3 |
| 20260509060029 | 18 | 8 | 0.0 | 3.2 | 0.00 | 0.00 | 0.00 | 94 | 1012.1 |
| 20260509055524 | 18 | 22 | 0.0 | 3.2 | 0.00 | 0.00 | 0.00 | 94 | 1012.0 |
| 20260509055021 | 18 | 40 | 0.0 | 3.2 | 0.00 | 0.00 | 0.00 | 94 | 1011.9 |
| 20260509054517 | 19 | 147 | 0.0 | 3.2 | 0.00 | 0.00 | 0.00 | 94 | 1012.2 |
| 20260509054016 | 19 | 216 | 0.0 | 1.6 | 0.00 | 0.00 | 0.00 | 94 | 1012.3 |
| 20260509053514 | 20 | 217 | 0.0 | 3.2 | 0.00 | 0.00 | 0.00 | 93 | 1012.5 |
| 20260509053010 | 20 | 341 | 0.0 | 3.2 | 0.00 | 0.00 | 0.00 | 93 | 1012.5 |
| 20260509052508 | 20 | 59 | 0.0 | 1.6 | 0.00 | 0.00 | 0.00 | 93 | 1012.4 |
| 20260509052006 | 20 | 66 | 1.6 | 4.8 | 0.00 | 0.00 | 0.00 | 93 | 1012.5 |
| 20260509051504 | 20 | 51 | 4.8 | 8.0 | 0.00 | 0.00 | 0.00 | 93 | 1012.5 |
| 20260509051000 | 20 | 43 | 4.8 | 4.8 | 0.00 | 0.00 | 0.00 | 93 | 1012.4 |
| 20260509050457 | 20 | 0 | 3.2 | 4.8 | 0.00 | 0.00 | 0.00 | 92 | 1012.4 |
| 20260509045953 | 20 | 1 | 1.6 | 3.2 | 0.00 | 0.00 | 0.00 | 92 | 1012.3 |
| 20260509045451 | 20 | 23 | 0.0 | 3.2 | 0.00 | 0.00 | 0.00 | 91 | 1011.9 |
| 20260509044948 | 20 | 184 | 0.0 | 0.0 | 0.00 | 0.00 | 0.00 | 91 | 1011.9 |
| 20260509044445 | 20 | 11 | 0.0 | 1.6 | 0.00 | 0.00 | 0.00 | 91 | 1011.9 |
| 20260509043942 | 20 | 348 | 3.2 | 6.4 | 0.00 | 0.00 | 0.00 | 91 | 1012.0 |
| 20260509043438 | 20 | 33 | 3.2 | 6.4 | 0.00 | 0.00 | 0.00 | 91 | 1011.7 |
| 20260509042933 | 21 | 160 | 3.2 | 4.8 | 0.00 | 0.00 | 0.00 | 91 | 1011.6 |
| 20260509042431 | 21 | 144 | 1.6 | 3.2 | 0.00 | 0.00 | 0.00 | 90 | 1011.5 |
| 20260509041927 | 21 | 183 | 1.6 | 3.2 | 0.00 | 0.00 | 0.00 | 90 | 1011.5 |
| 20260509041424 | 21 | 316 | 1.6 | 3.2 | 0.00 | 0.00 | 0.00 | 90 | 1011.7 |
| 20260509040922 | 21 | 186 | 1.6 | 8.0 | 0.00 | 0.00 | 0.00 | 90 | 1011.5 |
| 20260509040420 | 21 | 125 | 3.2 | 4.8 | 0.00 | 0.00 | 0.00 | 90 | 1011.7 |
| 20260509035916 | 21 | 169 | 3.2 | 4.8 | 0.00 | 0.00 | 0.00 | 90 | 1011.5 |
| 20260509035414 | 21 | 163 | 3.2 | 4.8 | 0.00 | 0.00 | 0.00 | 89 | 1011.7 |
| 20260509034910 | 21 | 205 | 0.0 | 6.4 | 0.00 | 0.00 | 0.00 | 89 | 1011.5 |
| 20260509034408 | 21 | 167 | 3.2 | 4.8 | 0.00 | 0.00 | 0.00 | 89 | 1011.4 |
| 20260509033905 | 21 | 182 | 3.2 | 6.4 | 0.00 | 0.00 | 0.00 | 89 | 1011.5 |
| 20260509033402 | 21 | 159 | 3.2 | 4.8 | 0.00 | 0.00 | 0.00 | 89 | 1011.6 |
| 20260509032858 | 21 | 122 | 3.2 | 6.4 | 0.00 | 0.00 | 0.00 | 88 | 1011.7 |
| 20260509032355 | 21 | 149 | 4.8 | 4.8 | 0.00 | 0.00 | 0.00 | 88 | 1011.8 |
| 20260509031853 | 21 | 114 | 0.0 | 3.2 | 0.00 | 0.00 | 0.00 | 88 | 1011.7 |
| 20260509031350 | 21 | 178 | 3.2 | 4.8 | 0.00 | 0.00 | 0.00 | 87 | 1011.5 |
| 20260509030848 | 22 | 170 | 1.6 | 6.4 | 0.00 | 0.00 | 0.00 | 87 | 1011.5 |
| 20260509030346 | 22 | 152 | 3.2 | 6.4 | 0.00 | 0.00 | 0.00 | 87 | 1011.4 |
| 20260509025843 | 22 | 163 | 1.6 | 4.8 | 0.00 | 0.00 | 0.00 | 87 | 1011.3 |
| 20260509025338 | 22 | 147 | 3.2 | 4.8 | 0.00 | 0.00 | 0.00 | 86 | 1011.4 |
| 20260509024833 | 22 | 144 | 3.2 | 6.4 | 0.00 | 0.00 | 0.00 | 86 | 1011.1 |
| 20260509024330 | 22 | 148 | 3.2 | 4.8 | 0.00 | 0.00 | 0.00 | 86 | 1011.0 |
| 20260509023827 | 22 | 293 | 0.0 | 4.8 | 0.00 | 0.00 | 0.00 | 86 | 1011.0 |
| 20260509023325 | 22 | 141 | 4.8 | 6.4 | 0.00 | 0.00 | 0.00 | 85 | 1011.0 |
| 20260509022821 | 22 | 154 | 1.6 | 4.8 | 0.00 | 0.00 | 0.00 | 85 | 1010.9 |
| 20260509022318 | 22 | 170 | 4.8 | 6.4 | 0.00 | 0.00 | 0.00 | 85 | 1011.0 |
| 20260509021815 | 22 | 214 | 0.0 | 3.2 | 0.00 | 0.00 | 0.00 | 85 | 1010.8 |
| 20260509021312 | 22 | 128 | 0.0 | 3.2 | 0.00 | 0.00 | 0.00 | 85 | 1010.9 |
| 20260509020810 | 22 | 181 | 3.2 | 4.8 | 0.00 | 0.00 | 0.00 | 85 | 1010.9 |
| 20260509020308 | 22 | 182 | 0.0 | 3.2 | 0.00 | 0.00 | 0.00 | 85 | 1011.0 |
| 20260509015805 | 22 | 153 | 0.0 | 3.2 | 0.00 | 0.00 | 0.00 | 85 | 1010.8 |
| 20260509015306 | 22 | 149 | 3.2 | 4.8 | 0.00 | 0.00 | 0.00 | 85 | 1010.8 |
| 20260509014759 | 22 | 146 | 3.2 | 3.2 | 0.00 | 0.00 | 0.00 | 85 | 1010.9 |
| 20260509014256 | 22 | 309 | 0.0 | 1.6 | 0.00 | 0.00 | 0.00 | 84 | 1010.7 |
| 20260509013753 | 22 | 341 | 0.0 | 1.6 | 0.00 | 0.00 | 0.00 | 84 | 1010.5 |
| 20260509013248 | 23 | 74 | 1.6 | 3.2 | 0.00 | 0.00 | 0.00 | 84 | 1010.8 |
| 20260509012745 | 23 | 89 | 0.0 | 4.8 | 0.00 | 0.00 | 0.00 | 84 | 1010.7 |
| 20260509012242 | 23 | 332 | 0.0 | 3.2 | 0.00 | 0.00 | 0.00 | 83 | 1010.4 |
| 20260509011739 | 23 | 140 | 0.0 | 4.8 | 0.00 | 0.00 | 0.00 | 83 | 1010.3 |
| 20260509011237 | 23 | 132 | 3.2 | 4.8 | 0.00 | 0.00 | 0.00 | 83 | 1010.2 |
| 20260509010735 | 23 | 155 | 0.0 | 4.8 | 0.00 | 0.00 | 0.00 | 83 | 1010.2 |
| 20260509010231 | 23 | 86 | 0.0 | 4.8 | 0.00 | 0.00 | 0.00 | 82 | 1010.0 |
| 20260509005728 | 23 | 107 | 0.0 | 3.2 | 0.00 | 0.00 | 0.00 | 82 | 1010.1 |
| 20260509005225 | 23 | 15 | 1.6 | 3.2 | 0.00 | 0.00 | 0.00 | 82 | 1010.0 |
| 20260509004720 | 23 | 57 | 0.0 | 4.8 | 0.00 | 0.00 | 0.00 | 81 | 1010.1 |
| 20260509004218 | 23 | 140 | 4.8 | 6.4 | 0.00 | 0.00 | 0.00 | 81 | 1009.9 |
| 20260509003715 | 23 | 66 | 0.0 | 4.8 | 0.00 | 0.00 | 0.00 | 81 | 1010.1 |
| 20260509003213 | 23 | 113 | 1.6 | 4.8 | 0.00 | 0.00 | 0.00 | 80 | 1009.9 |
| 20260509002710 | 23 | 166 | 6.4 | 6.4 | 0.00 | 0.00 | 0.00 | 80 | 1010.0 |
| 20260509002208 | 23 | 82 | 4.8 | 4.8 | 0.00 | 0.00 | 0.00 | 80 | 1010.0 |
| 20260509001705 | 23 | 114 | 3.2 | 6.4 | 0.00 | 0.00 | 0.00 | 79 | 1010.0 |
| 20260509001200 | 24 | 13 | 1.6 | 9.7 | 0.00 | 0.00 | 0.00 | 79 | 1010.0 |
| 20260509000659 | 24 | 57 | 4.8 | 4.8 | 0.00 | 0.00 | 0.00 | 78 | 1009.9 |
| 20260509000156 | 24 | 86 | 1.6 | 6.4 | 0.00 | 0.00 | 0.00 | 78 | 1010.0 |
| 20260508235653 | 25 | 54 | 4.8 | 4.8 | 0.00 | 0.00 | 0.00 | 77 | 1010.0 |
| 20260508235149 | 25 | 104 | 0.0 | 6.4 | 0.00 | 0.00 | 0.00 | 77 | 1010.2 |
| 20260508234646 | 25 | 142 | 3.2 | 8.0 | 0.00 | 0.00 | 0.00 | 77 | 1010.0 |
| 20260508234142 | 25 | 164 | 3.2 | 11.3 | 0.00 | 0.00 | 0.00 | 77 | 1009.9 |
| 20260508233637 | 24 | 157 | 4.8 | 9.7 | 0.00 | 0.00 | 0.00 | 77 | 1010.1 |
| 20260508233134 | 25 | 156 | 9.7 | 11.3 | 0.00 | 0.00 | 0.00 | 76 | 1009.9 |
| 20260508232631 | 25 | 136 | 3.2 | 8.0 | 0.00 | 0.00 | 0.00 | 75 | 1010.0 |
| 20260508232128 | 25 | 160 | 1.6 | 11.3 | 0.00 | 0.00 | 0.00 | 75 | 1009.8 |
| 20260508231625 | 25 | 157 | 8.0 | 9.7 | 0.00 | 0.00 | 0.00 | 75 | 1010.0 |
| 20260508231122 | 25 | 117 | 4.8 | 11.3 | 0.00 | 0.00 | 0.00 | 74 | 1010.0 |
| 20260508230618 | 25 | 78 | 1.6 | 6.4 | 0.00 | 0.00 | 0.00 | 75 | 1010.0 |
| 20260508230115 | 25 | 146 | 11.3 | 16.1 | 0.00 | 0.00 | 0.00 | 74 | 1009.8 |
| 20260508225613 | 25 | 107 | 3.2 | 14.5 | 0.00 | 0.00 | 0.00 | 75 | 1010.2 |
| 20260508225109 | 25 | 100 | 8.0 | 9.7 | 0.00 | 0.00 | 0.00 | 74 | 1010.1 |
| 20260508224607 | 25 | 87 | 4.8 | 11.3 | 0.00 | 0.00 | 0.00 | 73 | 1010.0 |
| 20260508224104 | 25 | 86 | 6.4 | 6.4 | 0.00 | 0.00 | 0.00 | 74 | 1010.0 |
| 20260508223602 | 25 | 150 | 3.2 | 9.7 | 0.00 | 0.00 | 0.00 | 74 | 1010.1 |
| 20260508223059 | 25 | 105 | 3.2 | 9.7 | 0.00 | 0.00 | 0.00 | 75 | 1010.1 |
| 20260508222556 | 25 | 43 | 3.2 | 8.0 | 0.00 | 0.00 | 0.00 | 74 | 1010.4 |
| 20260508222053 | 25 | 162 | 12.9 | 14.5 | 0.00 | 0.00 | 0.00 | 74 | 1010.4 |
| 20260508221549 | 25 | 81 | 11.3 | 12.9 | 0.00 | 0.00 | 0.00 | 74 | 1010.3 |
| 20260508221045 | 25 | 132 | 8.0 | 11.3 | 0.00 | 0.00 | 0.00 | 73 | 1010.4 |
| 20260508220542 | 24 | 174 | 6.4 | 9.7 | 0.00 | 0.00 | 0.00 | 74 | 1010.5 |
| 20260508220038 | 24 | 88 | 3.2 | 14.5 | 0.00 | 0.00 | 0.00 | 74 | 1010.6 |
| 20260508215535 | 25 | 106 | 3.2 | 9.7 | 0.00 | 0.00 | 0.00 | 74 | 1010.6 |
| 20260508215032 | 25 | 134 | 6.4 | 8.0 | 0.00 | 0.00 | 0.00 | 73 | 1010.7 |
| 20260508214530 | 25 | 182 | 9.7 | 11.3 | 0.00 | 0.00 | 0.00 | 74 | 1010.7 |
| 20260508214026 | 24 | 123 | 9.7 | 14.5 | 0.00 | 0.00 | 0.00 | 75 | 1010.8 |
| 20260508213524 | 24 | 131 | 6.4 | 16.1 | 0.00 | 0.00 | 0.00 | 76 | 1010.7 |